sensor_id;sensor_type;location;lat;lon;timestamp;temperature;humidity
79489;SHT31;68949;53.176;18.088;2023-07-30T00:02:16;17.59;85.61
79489;SHT31;68949;53.176;18.088;2023-07-30T00:04:44;17.59;85.58
79489;SHT31;68949;53.176;18.088;2023-07-30T00:07:12;17.55;85.69
79489;SHT31;68949;53.176;18.088;2023-07-30T00:09:39;17.55;85.71
79489;SHT31;68949;53.176;18.088;2023-07-30T00:12:06;17.53;85.74
79489;SHT31;68949;53.176;18.088;2023-07-30T00:14:34;17.51;85.74
79489;SHT31;68949;53.176;18.088;2023-07-30T00:17:01;17.47;85.95
79489;SHT31;68949;53.176;18.088;2023-07-30T00:19:29;17.46;85.92
79489;SHT31;68949;53.176;18.088;2023-07-30T00:21:56;17.41;86.05
79489;SHT31;68949;53.176;18.088;2023-07-30T00:24:22;17.37;86.02
79489;SHT31;68949;53.176;18.088;2023-07-30T00:26:49;17.36;86.10
79489;SHT31;68949;53.176;18.088;2023-07-30T00:29:16;17.33;86.02
79489;SHT31;68949;53.176;18.088;2023-07-30T00:31:43;17.32;86.11
79489;SHT31;68949;53.176;18.088;2023-07-30T00:34:09;17.33;86.19
79489;SHT31;68949;53.176;18.088;2023-07-30T00:36:36;17.34;86.08
79489;SHT31;68949;53.176;18.088;2023-07-30T00:39:02;17.33;85.95
79489;SHT31;68949;53.176;18.088;2023-07-30T00:41:30;17.27;86.13
79489;SHT31;68949;53.176;18.088;2023-07-30T00:43:57;17.25;86.26
79489;SHT31;68949;53.176;18.088;2023-07-30T00:46:24;17.25;86.28
79489;SHT31;68949;53.176;18.088;2023-07-30T00:48:51;17.25;86.25
79489;SHT31;68949;53.176;18.088;2023-07-30T00:51:17;17.26;86.26
79489;SHT31;68949;53.176;18.088;2023-07-30T00:53:46;17.26;86.25
79489;SHT31;68949;53.176;18.088;2023-07-30T00:56:14;17.27;86.26
79489;SHT31;68949;53.176;18.088;2023-07-30T00:58:43;17.24;86.38
79489;SHT31;68949;53.176;18.088;2023-07-30T01:01:13;17.25;86.43
79489;SHT31;68949;53.176;18.088;2023-07-30T01:03:39;17.25;86.40
79489;SHT31;68949;53.176;18.088;2023-07-30T01:06:07;17.26;86.49
79489;SHT31;68949;53.176;18.088;2023-07-30T01:08:34;17.27;86.49
79489;SHT31;68949;53.176;18.088;2023-07-30T01:11:01;17.31;86.45
79489;SHT31;68949;53.176;18.088;2023-07-30T01:13:32;17.31;86.41
79489;SHT31;68949;53.176;18.088;2023-07-30T01:16:02;17.30;86.43
79489;SHT31;68949;53.176;18.088;2023-07-30T01:18:30;17.30;86.50
79489;SHT31;68949;53.176;18.088;2023-07-30T01:20:59;17.35;86.46
79489;SHT31;68949;53.176;18.088;2023-07-30T01:23:26;17.38;86.39
79489;SHT31;68949;53.176;18.088;2023-07-30T01:25:56;17.39;86.35
79489;SHT31;68949;53.176;18.088;2023-07-30T01:28:32;17.40;86.40
79489;SHT31;68949;53.176;18.088;2023-07-30T01:31:06;17.44;86.39
79489;SHT31;68949;53.176;18.088;2023-07-30T01:33:35;17.44;86.30
79489;SHT31;68949;53.176;18.088;2023-07-30T01:36:07;17.43;86.38
79489;SHT31;68949;53.176;18.088;2023-07-30T01:38:40;17.44;86.39
79489;SHT31;68949;53.176;18.088;2023-07-30T01:41:07;17.45;86.38
79489;SHT31;68949;53.176;18.088;2023-07-30T01:43:35;17.48;86.31
79489;SHT31;68949;53.176;18.088;2023-07-30T01:46:03;17.49;86.26
79489;SHT31;68949;53.176;18.088;2023-07-30T01:48:30;17.51;86.26
79489;SHT31;68949;53.176;18.088;2023-07-30T01:50:56;17.55;86.22
79489;SHT31;68949;53.176;18.088;2023-07-30T01:53:23;17.59;86.15
79489;SHT31;68949;53.176;18.088;2023-07-30T01:55:50;17.60;86.05
79489;SHT31;68949;53.176;18.088;2023-07-30T01:58:16;17.61;85.91
79489;SHT31;68949;53.176;18.088;2023-07-30T02:00:43;17.59;85.95
79489;SHT31;68949;53.176;18.088;2023-07-30T02:03:10;17.58;86.09
79489;SHT31;68949;53.176;18.088;2023-07-30T02:05:37;17.60;86.11
79489;SHT31;68949;53.176;18.088;2023-07-30T02:08:03;17.61;86.06
79489;SHT31;68949;53.176;18.088;2023-07-30T02:10:31;17.58;86.10
79489;SHT31;68949;53.176;18.088;2023-07-30T02:12:57;17.60;86.07
79489;SHT31;68949;53.176;18.088;2023-07-30T02:15:24;17.61;86.05
79489;SHT31;68949;53.176;18.088;2023-07-30T02:17:51;17.61;85.98
79489;SHT31;68949;53.176;18.088;2023-07-30T02:20:17;17.61;85.97
79489;SHT31;68949;53.176;18.088;2023-07-30T02:22:44;17.64;85.89
79489;SHT31;68949;53.176;18.088;2023-07-30T02:25:11;17.62;85.87
79489;SHT31;68949;53.176;18.088;2023-07-30T02:27:37;17.65;85.93
79489;SHT31;68949;53.176;18.088;2023-07-30T02:30:04;17.62;85.90
79489;SHT31;68949;53.176;18.088;2023-07-30T02:32:32;17.66;85.91
79489;SHT31;68949;53.176;18.088;2023-07-30T02:34:59;17.68;85.85
79489;SHT31;68949;53.176;18.088;2023-07-30T02:37:25;17.70;85.85
79489;SHT31;68949;53.176;18.088;2023-07-30T02:39:52;17.72;85.73
79489;SHT31;68949;53.176;18.088;2023-07-30T02:42:19;17.74;85.71
79489;SHT31;68949;53.176;18.088;2023-07-30T02:44:46;17.74;85.60
79489;SHT31;68949;53.176;18.088;2023-07-30T02:47:12;17.74;85.60
79489;SHT31;68949;53.176;18.088;2023-07-30T02:49:39;17.76;85.59
79489;SHT31;68949;53.176;18.088;2023-07-30T02:52:06;17.77;85.60
79489;SHT31;68949;53.176;18.088;2023-07-30T02:54:33;17.79;85.56
79489;SHT31;68949;53.176;18.088;2023-07-30T02:56:59;17.77;85.57
79489;SHT31;68949;53.176;18.088;2023-07-30T02:59:27;17.76;85.60
79489;SHT31;68949;53.176;18.088;2023-07-30T03:01:54;17.77;85.63
79489;SHT31;68949;53.176;18.088;2023-07-30T03:04:21;17.75;85.75
79489;SHT31;68949;53.176;18.088;2023-07-30T03:06:47;17.69;85.88
79489;SHT31;68949;53.176;18.088;2023-07-30T03:09:14;17.65;86.01
79489;SHT31;68949;53.176;18.088;2023-07-30T03:11:41;17.64;86.09
79489;SHT31;68949;53.176;18.088;2023-07-30T03:14:08;17.67;86.13
79489;SHT31;68949;53.176;18.088;2023-07-30T03:16:34;17.72;86.03
79489;SHT31;68949;53.176;18.088;2023-07-30T03:19:01;17.74;86.02
79489;SHT31;68949;53.176;18.088;2023-07-30T03:21:27;17.75;86.00
79489;SHT31;68949;53.176;18.088;2023-07-30T03:23:54;17.78;86.02
79489;SHT31;68949;53.176;18.088;2023-07-30T03:26:21;17.81;85.99
79489;SHT31;68949;53.176;18.088;2023-07-30T03:28:47;17.83;85.97
79489;SHT31;68949;53.176;18.088;2023-07-30T03:31:14;17.88;86.00
79489;SHT31;68949;53.176;18.088;2023-07-30T03:33:42;17.90;85.90
79489;SHT31;68949;53.176;18.088;2023-07-30T03:36:10;17.91;85.94
79489;SHT31;68949;53.176;18.088;2023-07-30T03:38:37;17.93;86.04
79489;SHT31;68949;53.176;18.088;2023-07-30T03:41:05;17.97;85.97
79489;SHT31;68949;53.176;18.088;2023-07-30T03:43:33;18.02;85.87
79489;SHT31;68949;53.176;18.088;2023-07-30T03:46:01;18.03;85.80
79489;SHT31;68949;53.176;18.088;2023-07-30T03:48:28;18.04;85.90
79489;SHT31;68949;53.176;18.088;2023-07-30T03:50:55;18.09;85.88
79489;SHT31;68949;53.176;18.088;2023-07-30T03:53:22;18.14;85.77
79489;SHT31;68949;53.176;18.088;2023-07-30T03:55:49;18.16;85.70
79489;SHT31;68949;53.176;18.088;2023-07-30T03:58:16;18.17;85.72
79489;SHT31;68949;53.176;18.088;2023-07-30T04:00:42;18.19;85.73
79489;SHT31;68949;53.176;18.088;2023-07-30T04:03:09;18.19;85.77
79489;SHT31;68949;53.176;18.088;2023-07-30T04:05:36;18.15;85.83
79489;SHT31;68949;53.176;18.088;2023-07-30T04:08:02;18.14;85.99
79489;SHT31;68949;53.176;18.088;2023-07-30T04:10:29;18.12;86.07
79489;SHT31;68949;53.176;18.088;2023-07-30T04:12:56;18.09;86.23
79489;SHT31;68949;53.176;18.088;2023-07-30T04:15:22;18.08;86.31
79489;SHT31;68949;53.176;18.088;2023-07-30T04:17:49;18.05;86.34
79489;SHT31;68949;53.176;18.088;2023-07-30T04:20:16;18.04;86.43
79489;SHT31;68949;53.176;18.088;2023-07-30T04:22:44;18.05;86.54
79489;SHT31;68949;53.176;18.088;2023-07-30T04:25:10;18.06;86.62
79489;SHT31;68949;53.176;18.088;2023-07-30T04:27:37;18.08;86.71
79489;SHT31;68949;53.176;18.088;2023-07-30T04:30:04;18.14;86.74
79489;SHT31;68949;53.176;18.088;2023-07-30T04:32:33;18.15;86.74
79489;SHT31;68949;53.176;18.088;2023-07-30T04:35:00;18.16;86.80
79489;SHT31;68949;53.176;18.088;2023-07-30T04:37:29;18.15;86.84
79489;SHT31;68949;53.176;18.088;2023-07-30T04:39:56;18.16;86.89
79489;SHT31;68949;53.176;18.088;2023-07-30T04:42:23;18.18;86.95
79489;SHT31;68949;53.176;18.088;2023-07-30T04:44:50;18.19;86.99
79489;SHT31;68949;53.176;18.088;2023-07-30T04:47:17;18.17;86.97
79489;SHT31;68949;53.176;18.088;2023-07-30T04:49:44;18.16;87.12
79489;SHT31;68949;53.176;18.088;2023-07-30T04:52:10;18.15;87.23
79489;SHT31;68949;53.176;18.088;2023-07-30T04:54:37;18.18;87.29
79489;SHT31;68949;53.176;18.088;2023-07-30T04:57:04;18.21;87.30
79489;SHT31;68949;53.176;18.088;2023-07-30T04:59:32;18.23;87.30
79489;SHT31;68949;53.176;18.088;2023-07-30T05:02:00;18.29;87.28
79489;SHT31;68949;53.176;18.088;2023-07-30T05:04:27;18.33;87.28
79489;SHT31;68949;53.176;18.088;2023-07-30T05:06:54;18.37;87.22
79489;SHT31;68949;53.176;18.088;2023-07-30T05:09:20;18.37;87.26
79489;SHT31;68949;53.176;18.088;2023-07-30T05:11:48;18.36;87.31
79489;SHT31;68949;53.176;18.088;2023-07-30T05:14:14;18.42;87.45
79489;SHT31;68949;53.176;18.088;2023-07-30T05:16:41;18.53;87.39
79489;SHT31;68949;53.176;18.088;2023-07-30T05:19:08;18.62;87.31
79489;SHT31;68949;53.176;18.088;2023-07-30T05:21:34;18.73;87.29
79489;SHT31;68949;53.176;18.088;2023-07-30T05:24:01;18.78;87.29
79489;SHT31;68949;53.176;18.088;2023-07-30T05:26:28;18.85;87.25
79489;SHT31;68949;53.176;18.088;2023-07-30T05:28:54;18.94;87.04
79489;SHT31;68949;53.176;18.088;2023-07-30T05:31:21;19.01;86.87
79489;SHT31;68949;53.176;18.088;2023-07-30T05:33:48;19.09;86.82
79489;SHT31;68949;53.176;18.088;2023-07-30T05:36:14;19.17;86.62
79489;SHT31;68949;53.176;18.088;2023-07-30T05:38:41;19.21;86.63
79489;SHT31;68949;53.176;18.088;2023-07-30T05:41:07;19.29;86.60
79489;SHT31;68949;53.176;18.088;2023-07-30T05:43:34;19.34;86.39
79489;SHT31;68949;53.176;18.088;2023-07-30T05:46:01;19.40;86.39
79489;SHT31;68949;53.176;18.088;2023-07-30T05:48:27;19.43;86.16
79489;SHT31;68949;53.176;18.088;2023-07-30T05:50:54;19.43;86.25
79489;SHT31;68949;53.176;18.088;2023-07-30T05:53:21;19.44;86.21
79489;SHT31;68949;53.176;18.088;2023-07-30T05:55:48;19.42;86.24
79489;SHT31;68949;53.176;18.088;2023-07-30T05:58:15;19.43;86.14
79489;SHT31;68949;53.176;18.088;2023-07-30T06:00:41;19.42;86.17
79489;SHT31;68949;53.176;18.088;2023-07-30T06:03:08;19.46;86.17
79489;SHT31;68949;53.176;18.088;2023-07-30T06:05:42;19.50;86.05
79489;SHT31;68949;53.176;18.088;2023-07-30T06:08:09;19.51;85.95
79489;SHT31;68949;53.176;18.088;2023-07-30T06:10:38;19.54;85.94
79489;SHT31;68949;53.176;18.088;2023-07-30T06:13:07;19.54;85.82
79489;SHT31;68949;53.176;18.088;2023-07-30T06:15:33;19.55;85.74
79489;SHT31;68949;53.176;18.088;2023-07-30T06:18:01;19.58;85.79
79489;SHT31;68949;53.176;18.088;2023-07-30T06:20:29;19.60;85.54
79489;SHT31;68949;53.176;18.088;2023-07-30T06:22:56;19.63;85.51
79489;SHT31;68949;53.176;18.088;2023-07-30T06:25:23;19.67;85.53
79489;SHT31;68949;53.176;18.088;2023-07-30T06:27:49;19.71;85.53
79489;SHT31;68949;53.176;18.088;2023-07-30T06:30:17;19.74;85.40
79489;SHT31;68949;53.176;18.088;2023-07-30T06:32:44;19.79;85.31
79489;SHT31;68949;53.176;18.088;2023-07-30T06:35:10;19.84;85.05
79489;SHT31;68949;53.176;18.088;2023-07-30T06:37:37;19.92;85.12
79489;SHT31;68949;53.176;18.088;2023-07-30T06:40:04;20.00;84.92
79489;SHT31;68949;53.176;18.088;2023-07-30T06:42:32;20.05;84.78
79489;SHT31;68949;53.176;18.088;2023-07-30T06:44:59;20.12;84.57
79489;SHT31;68949;53.176;18.088;2023-07-30T06:47:26;20.14;84.28
79489;SHT31;68949;53.176;18.088;2023-07-30T06:49:53;20.17;84.47
79489;SHT31;68949;53.176;18.088;2023-07-30T06:52:19;20.26;84.49
79489;SHT31;68949;53.176;18.088;2023-07-30T06:54:46;20.34;84.08
79489;SHT31;68949;53.176;18.088;2023-07-30T06:57:13;20.40;84.14
79489;SHT31;68949;53.176;18.088;2023-07-30T06:59:40;20.46;83.95
79489;SHT31;68949;53.176;18.088;2023-07-30T07:02:07;20.51;83.52
79489;SHT31;68949;53.176;18.088;2023-07-30T07:04:33;20.59;83.21
79489;SHT31;68949;53.176;18.088;2023-07-30T07:07:00;20.69;82.58
79489;SHT31;68949;53.176;18.088;2023-07-30T07:09:29;20.69;82.14
79489;SHT31;68949;53.176;18.088;2023-07-30T07:11:56;20.76;81.49
79489;SHT31;68949;53.176;18.088;2023-07-30T07:14:24;20.95;81.58
79489;SHT31;68949;53.176;18.088;2023-07-30T07:16:51;21.14;81.06
79489;SHT31;68949;53.176;18.088;2023-07-30T07:19:20;21.24;80.94
79489;SHT31;68949;53.176;18.088;2023-07-30T07:21:47;21.27;80.64
79489;SHT31;68949;53.176;18.088;2023-07-30T07:24:14;21.33;80.73
79489;SHT31;68949;53.176;18.088;2023-07-30T07:26:41;21.41;80.11
79489;SHT31;68949;53.176;18.088;2023-07-30T07:29:09;21.39;79.44
79489;SHT31;68949;53.176;18.088;2023-07-30T07:31:35;21.35;79.49
79489;SHT31;68949;53.176;18.088;2023-07-30T07:34:02;21.42;79.56
79489;SHT31;68949;53.176;18.088;2023-07-30T07:36:29;21.68;79.23
79489;SHT31;68949;53.176;18.088;2023-07-30T07:38:55;21.87;79.62
79489;SHT31;68949;53.176;18.088;2023-07-30T07:41:22;21.89;78.94
79489;SHT31;68949;53.176;18.088;2023-07-30T07:43:49;21.99;78.46
79489;SHT31;68949;53.176;18.088;2023-07-30T07:46:15;22.02;78.26
79489;SHT31;68949;53.176;18.088;2023-07-30T07:48:42;22.02;78.32
79489;SHT31;68949;53.176;18.088;2023-07-30T07:51:10;22.05;78.13
79489;SHT31;68949;53.176;18.088;2023-07-30T07:53:38;22.05;77.73
79489;SHT31;68949;53.176;18.088;2023-07-30T07:56:05;22.08;77.68
79489;SHT31;68949;53.176;18.088;2023-07-30T07:58:32;22.28;77.57
79489;SHT31;68949;53.176;18.088;2023-07-30T08:00:59;22.30;77.00
79489;SHT31;68949;53.176;18.088;2023-07-30T08:03:26;22.40;76.92
79489;SHT31;68949;53.176;18.088;2023-07-30T08:05:55;22.59;77.22
79489;SHT31;68949;53.176;18.088;2023-07-30T08:08:23;22.65;76.74
79489;SHT31;68949;53.176;18.088;2023-07-30T08:10:53;22.56;76.68
79489;SHT31;68949;53.176;18.088;2023-07-30T08:13:20;22.51;76.79
79489;SHT31;68949;53.176;18.088;2023-07-30T08:15:46;22.50;76.22
79489;SHT31;68949;53.176;18.088;2023-07-30T08:18:13;22.50;75.69
79489;SHT31;68949;53.176;18.088;2023-07-30T08:20:40;22.50;75.81
79489;SHT31;68949;53.176;18.088;2023-07-30T08:23:06;22.45;75.79
79489;SHT31;68949;53.176;18.088;2023-07-30T08:25:33;22.40;76.03
79489;SHT31;68949;53.176;18.088;2023-07-30T08:28:00;22.57;75.86
79489;SHT31;68949;53.176;18.088;2023-07-30T08:30:26;22.77;75.49
79489;SHT31;68949;53.176;18.088;2023-07-30T08:32:53;22.94;74.62
79489;SHT31;68949;53.176;18.088;2023-07-30T08:35:19;22.99;74.09
79489;SHT31;68949;53.176;18.088;2023-07-30T08:37:46;22.88;73.70
79489;SHT31;68949;53.176;18.088;2023-07-30T08:40:13;22.88;73.86
79489;SHT31;68949;53.176;18.088;2023-07-30T08:42:41;22.88;73.30
79489;SHT31;68949;53.176;18.088;2023-07-30T08:45:07;23.07;72.78
79489;SHT31;68949;53.176;18.088;2023-07-30T08:47:35;23.32;72.08
79489;SHT31;68949;53.176;18.088;2023-07-30T08:50:02;23.58;71.69
79489;SHT31;68949;53.176;18.088;2023-07-30T08:52:29;23.51;71.20
79489;SHT31;68949;53.176;18.088;2023-07-30T08:54:57;23.59;71.23
79489;SHT31;68949;53.176;18.088;2023-07-30T08:57:28;23.52;70.44
79489;SHT31;68949;53.176;18.088;2023-07-30T09:00:05;23.49;70.98
79489;SHT31;68949;53.176;18.088;2023-07-30T09:02:47;23.63;70.83
79489;SHT31;68949;53.176;18.088;2023-07-30T09:05:17;23.85;70.51
79489;SHT31;68949;53.176;18.088;2023-07-30T09:07:46;24.02;69.64
79489;SHT31;68949;53.176;18.088;2023-07-30T09:10:13;24.09;69.10
79489;SHT31;68949;53.176;18.088;2023-07-30T09:12:41;24.19;68.60
79489;SHT31;68949;53.176;18.088;2023-07-30T09:15:08;24.33;68.22
79489;SHT31;68949;53.176;18.088;2023-07-30T09:17:35;24.30;67.34
79489;SHT31;68949;53.176;18.088;2023-07-30T09:20:03;24.13;67.44
79489;SHT31;68949;53.176;18.088;2023-07-30T09:22:31;23.99;67.37
79489;SHT31;68949;53.176;18.088;2023-07-30T09:25:02;24.03;67.10
79489;SHT31;68949;53.176;18.088;2023-07-30T09:27:31;24.06;67.18
79489;SHT31;68949;53.176;18.088;2023-07-30T09:29:59;23.96;67.42
79489;SHT31;68949;53.176;18.088;2023-07-30T09:32:28;23.80;67.63
79489;SHT31;68949;53.176;18.088;2023-07-30T09:35:03;23.61;67.49
79489;SHT31;68949;53.176;18.088;2023-07-30T09:37:38;23.51;67.95
79489;SHT31;68949;53.176;18.088;2023-07-30T09:40:08;23.63;67.89
79489;SHT31;68949;53.176;18.088;2023-07-30T09:42:42;23.80;67.34
79489;SHT31;68949;53.176;18.088;2023-07-30T09:45:16;23.83;66.63
79489;SHT31;68949;53.176;18.088;2023-07-30T09:47:51;23.98;66.22
79489;SHT31;68949;53.176;18.088;2023-07-30T09:50:20;24.06;66.10
79489;SHT31;68949;53.176;18.088;2023-07-30T09:52:47;24.02;66.22
79489;SHT31;68949;53.176;18.088;2023-07-30T09:55:15;24.16;64.89
79489;SHT31;68949;53.176;18.088;2023-07-30T09:57:45;23.96;64.83
79489;SHT31;68949;53.176;18.088;2023-07-30T10:00:12;23.75;65.06
79489;SHT31;68949;53.176;18.088;2023-07-30T10:02:41;23.62;65.37
79489;SHT31;68949;53.176;18.088;2023-07-30T10:05:16;23.52;65.64
79489;SHT31;68949;53.176;18.088;2023-07-30T10:07:48;23.44;65.86
79489;SHT31;68949;53.176;18.088;2023-07-30T10:10:22;23.49;65.36
79489;SHT31;68949;53.176;18.088;2023-07-30T10:12:51;23.47;65.40
79489;SHT31;68949;53.176;18.088;2023-07-30T10:15:22;23.41;66.25
79489;SHT31;68949;53.176;18.088;2023-07-30T10:17:52;23.36;65.63
79489;SHT31;68949;53.176;18.088;2023-07-30T10:20:24;23.24;66.06
79489;SHT31;68949;53.176;18.088;2023-07-30T10:22:54;23.29;65.94
79489;SHT31;68949;53.176;18.088;2023-07-30T10:25:27;23.44;66.03
79489;SHT31;68949;53.176;18.088;2023-07-30T10:27:57;23.72;66.04
79489;SHT31;68949;53.176;18.088;2023-07-30T10:30:29;24.11;65.77
79489;SHT31;68949;53.176;18.088;2023-07-30T10:32:59;24.41;65.13
79489;SHT31;68949;53.176;18.088;2023-07-30T10:35:34;24.50;64.24
79489;SHT31;68949;53.176;18.088;2023-07-30T10:38:21;24.51;64.39
79489;SHT31;68949;53.176;18.088;2023-07-30T10:41:10;24.95;64.17
79489;SHT31;68949;53.176;18.088;2023-07-30T10:43:41;25.12;63.22
79489;SHT31;68949;53.176;18.088;2023-07-30T10:46:11;25.34;62.96
79489;SHT31;68949;53.176;18.088;2023-07-30T10:48:40;25.33;62.10
79489;SHT31;68949;53.176;18.088;2023-07-30T10:51:10;25.26;62.47
79489;SHT31;68949;53.176;18.088;2023-07-30T10:53:41;25.41;62.11
79489;SHT31;68949;53.176;18.088;2023-07-30T10:56:12;25.43;61.23
79489;SHT31;68949;53.176;18.088;2023-07-30T10:58:41;25.36;61.77
79489;SHT31;68949;53.176;18.088;2023-07-30T11:01:09;25.41;61.73
79489;SHT31;68949;53.176;18.088;2023-07-30T11:03:36;25.31;60.25
79489;SHT31;68949;53.176;18.088;2023-07-30T11:06:04;25.23;60.43
79489;SHT31;68949;53.176;18.088;2023-07-30T11:08:41;25.22;61.21
79489;SHT31;68949;53.176;18.088;2023-07-30T11:11:09;25.26;60.76
79489;SHT31;68949;53.176;18.088;2023-07-30T11:13:37;25.38;60.51
79489;SHT31;68949;53.176;18.088;2023-07-30T11:16:10;25.50;59.78
79489;SHT31;68949;53.176;18.088;2023-07-30T11:18:37;25.69;59.18
79489;SHT31;68949;53.176;18.088;2023-07-30T11:21:05;25.85;58.56
79489;SHT31;68949;53.176;18.088;2023-07-30T11:23:38;25.96;58.24
79489;SHT31;68949;53.176;18.088;2023-07-30T11:26:08;25.89;57.76
79489;SHT31;68949;53.176;18.088;2023-07-30T11:28:40;25.85;58.34
79489;SHT31;68949;53.176;18.088;2023-07-30T11:33:40;25.97;56.99
79489;SHT31;68949;53.176;18.088;2023-07-30T11:36:16;26.02;57.07
79489;SHT31;68949;53.176;18.088;2023-07-30T11:38:50;25.97;56.62
79489;SHT31;68949;53.176;18.088;2023-07-30T11:41:19;25.94;56.32
79489;SHT31;68949;53.176;18.088;2023-07-30T11:43:49;26.06;56.99
79489;SHT31;68949;53.176;18.088;2023-07-30T11:46:16;26.16;56.15
79489;SHT31;68949;53.176;18.088;2023-07-30T11:48:51;26.30;56.08
79489;SHT31;68949;53.176;18.088;2023-07-30T11:51:36;26.46;55.53
79489;SHT31;68949;53.176;18.088;2023-07-30T11:54:02;26.53;53.95
79489;SHT31;68949;53.176;18.088;2023-07-30T11:56:30;26.52;53.99
79489;SHT31;68949;53.176;18.088;2023-07-30T11:59:05;26.25;53.57
79489;SHT31;68949;53.176;18.088;2023-07-30T12:01:35;26.12;54.07
79489;SHT31;68949;53.176;18.088;2023-07-30T12:04:03;26.00;53.41
79489;SHT31;68949;53.176;18.088;2023-07-30T12:06:42;25.93;53.74
79489;SHT31;68949;53.176;18.088;2023-07-30T12:09:15;25.85;54.13
79489;SHT31;68949;53.176;18.088;2023-07-30T12:14:24;26.23;53.79
79489;SHT31;68949;53.176;18.088;2023-07-30T12:16:56;26.29;53.68
79489;SHT31;68949;53.176;18.088;2023-07-30T12:19:24;26.28;53.56
79489;SHT31;68949;53.176;18.088;2023-07-30T12:21:51;26.37;54.09
79489;SHT31;68949;53.176;18.088;2023-07-30T12:24:17;26.58;52.86
79489;SHT31;68949;53.176;18.088;2023-07-30T12:26:44;26.51;52.73
79489;SHT31;68949;53.176;18.088;2023-07-30T12:29:12;26.49;52.29
79489;SHT31;68949;53.176;18.088;2023-07-30T12:31:40;26.56;52.71
79489;SHT31;68949;53.176;18.088;2023-07-30T12:34:07;26.57;52.73
79489;SHT31;68949;53.176;18.088;2023-07-30T12:36:34;26.53;53.18
79489;SHT31;68949;53.176;18.088;2023-07-30T12:39:01;26.50;52.36
79489;SHT31;68949;53.176;18.088;2023-07-30T12:41:28;26.58;52.74
79489;SHT31;68949;53.176;18.088;2023-07-30T12:43:55;26.73;52.16
79489;SHT31;68949;53.176;18.088;2023-07-30T12:46:23;26.72;51.50
79489;SHT31;68949;53.176;18.088;2023-07-30T12:48:51;26.78;51.87
79489;SHT31;68949;53.176;18.088;2023-07-30T12:51:18;26.72;51.61
79489;SHT31;68949;53.176;18.088;2023-07-30T12:53:45;26.92;51.53
79489;SHT31;68949;53.176;18.088;2023-07-30T12:56:11;27.09;50.92
79489;SHT31;68949;53.176;18.088;2023-07-30T12:58:38;27.12;50.76
79489;SHT31;68949;53.176;18.088;2023-07-30T13:01:06;26.89;50.59
79489;SHT31;68949;53.176;18.088;2023-07-30T13:03:33;26.78;51.33
79489;SHT31;68949;53.176;18.088;2023-07-30T13:06:00;26.87;51.24
79489;SHT31;68949;53.176;18.088;2023-07-30T13:08:26;26.98;50.81
79489;SHT31;68949;53.176;18.088;2023-07-30T13:10:53;26.96;50.45
79489;SHT31;68949;53.176;18.088;2023-07-30T13:13:20;26.90;50.46
79489;SHT31;68949;53.176;18.088;2023-07-30T13:15:47;26.74;50.37
79489;SHT31;68949;53.176;18.088;2023-07-30T13:18:13;26.55;50.72
79489;SHT31;68949;53.176;18.088;2023-07-30T13:20:40;26.41;50.10
79489;SHT31;68949;53.176;18.088;2023-07-30T13:23:07;26.34;50.49
79489;SHT31;68949;53.176;18.088;2023-07-30T13:25:33;26.47;50.39
79489;SHT31;68949;53.176;18.088;2023-07-30T13:28:00;26.61;50.20
79489;SHT31;68949;53.176;18.088;2023-07-30T13:30:26;26.60;50.12
79489;SHT31;68949;53.176;18.088;2023-07-30T13:32:55;26.65;50.70
79489;SHT31;68949;53.176;18.088;2023-07-30T13:35:23;26.54;50.58
79489;SHT31;68949;53.176;18.088;2023-07-30T13:37:49;26.54;50.62
79489;SHT31;68949;53.176;18.088;2023-07-30T13:40:16;26.78;50.32
79489;SHT31;68949;53.176;18.088;2023-07-30T13:42:42;26.87;50.42
79489;SHT31;68949;53.176;18.088;2023-07-30T13:45:09;26.70;50.23
79489;SHT31;68949;53.176;18.088;2023-07-30T13:47:36;26.52;50.45
79489;SHT31;68949;53.176;18.088;2023-07-30T13:50:03;26.39;50.72
79489;SHT31;68949;53.176;18.088;2023-07-30T13:52:30;26.33;50.97
79489;SHT31;68949;53.176;18.088;2023-07-30T13:54:56;26.28;51.29
79489;SHT31;68949;53.176;18.088;2023-07-30T13:57:23;26.45;51.72
79489;SHT31;68949;53.176;18.088;2023-07-30T13:59:51;26.73;50.91
79489;SHT31;68949;53.176;18.088;2023-07-30T14:02:19;26.95;49.58
79489;SHT31;68949;53.176;18.088;2023-07-30T14:04:46;27.00;48.47
79489;SHT31;68949;53.176;18.088;2023-07-30T14:07:12;27.11;48.67
79489;SHT31;68949;53.176;18.088;2023-07-30T14:09:39;27.23;48.89
79489;SHT31;68949;53.176;18.088;2023-07-30T14:12:06;27.30;48.74
79489;SHT31;68949;53.176;18.088;2023-07-30T14:14:33;27.25;48.09
79489;SHT31;68949;53.176;18.088;2023-07-30T14:17:00;27.30;48.67
79489;SHT31;68949;53.176;18.088;2023-07-30T14:19:32;27.40;48.49
79489;SHT31;68949;53.176;18.088;2023-07-30T14:21:59;27.42;48.62
79489;SHT31;68949;53.176;18.088;2023-07-30T14:24:27;27.41;48.03
79489;SHT31;68949;53.176;18.088;2023-07-30T14:26:54;27.29;47.71
79489;SHT31;68949;53.176;18.088;2023-07-30T14:29:21;27.05;48.75
79489;SHT31;68949;53.176;18.088;2023-07-30T14:31:47;26.98;48.62
79489;SHT31;68949;53.176;18.088;2023-07-30T14:34:14;26.90;48.78
79489;SHT31;68949;53.176;18.088;2023-07-30T14:36:41;26.87;49.17
79489;SHT31;68949;53.176;18.088;2023-07-30T14:39:07;26.97;49.28
79489;SHT31;68949;53.176;18.088;2023-07-30T14:41:34;27.07;48.45
79489;SHT31;68949;53.176;18.088;2023-07-30T14:44:01;27.10;48.17
79489;SHT31;68949;53.176;18.088;2023-07-30T14:46:27;27.12;48.42
79489;SHT31;68949;53.176;18.088;2023-07-30T14:48:54;27.19;48.18
79489;SHT31;68949;53.176;18.088;2023-07-30T14:51:21;27.27;47.77
79489;SHT31;68949;53.176;18.088;2023-07-30T14:53:48;27.35;47.61
79489;SHT31;68949;53.176;18.088;2023-07-30T14:56:14;27.49;47.80
79489;SHT31;68949;53.176;18.088;2023-07-30T14:58:41;27.58;47.29
79489;SHT31;68949;53.176;18.088;2023-07-30T15:01:07;27.64;47.32
79489;SHT31;68949;53.176;18.088;2023-07-30T15:03:34;27.67;46.87
79489;SHT31;68949;53.176;18.088;2023-07-30T15:06:01;27.66;46.76
79489;SHT31;68949;53.176;18.088;2023-07-30T15:08:29;27.67;47.05
79489;SHT31;68949;53.176;18.088;2023-07-30T15:10:56;27.53;46.78
79489;SHT31;68949;53.176;18.088;2023-07-30T15:13:22;27.36;46.97
79489;SHT31;68949;53.176;18.088;2023-07-30T15:15:51;27.33;46.76
79489;SHT31;68949;53.176;18.088;2023-07-30T15:18:18;27.27;47.02
79489;SHT31;68949;53.176;18.088;2023-07-30T15:20:45;27.04;46.89
79489;SHT31;68949;53.176;18.088;2023-07-30T15:23:11;26.78;47.31
79489;SHT31;68949;53.176;18.088;2023-07-30T15:25:38;26.74;47.31